sensor_id;sensor_type;location;lat;lon;timestamp;P1;durP1;ratioP1;P2;durP2;ratioP2
57826;SDS011;43656;57.746;11.780;2023-06-26T00:01:32;4.40;;;3.00;;
57826;SDS011;43656;57.746;11.780;2023-06-26T00:03:58;5.28;;;3.45;;
57826;SDS011;43656;57.746;11.780;2023-06-26T00:06:24;4.45;;;3.67;;
57826;SDS011;43656;57.746;11.780;2023-06-26T00:08:51;6.55;;;3.53;;
57826;SDS011;43656;57.746;11.780;2023-06-26T00:11:18;3.75;;;3.40;;
57826;SDS011;43656;57.746;11.780;2023-06-26T00:13:43;4.72;;;3.67;;
57826;SDS011;43656;57.746;11.780;2023-06-26T00:16:09;4.68;;;3.58;;
57826;SDS011;43656;57.746;11.780;2023-06-26T00:18:35;3.97;;;3.58;;
57826;SDS011;43656;57.746;11.780;2023-06-26T00:21:00;4.25;;;3.70;;
57826;SDS011;43656;57.746;11.780;2023-06-26T00:23:25;4.70;;;3.75;;
57826;SDS011;43656;57.746;11.780;2023-06-26T00:25:52;4.55;;;4.13;;
57826;SDS011;43656;57.746;11.780;2023-06-26T00:28:19;3.50;;;3.20;;
57826;SDS011;43656;57.746;11.780;2023-06-26T00:30:44;6.00;;;3.95;;
57826;SDS011;43656;57.746;11.780;2023-06-26T00:33:10;3.97;;;3.50;;
57826;SDS011;43656;57.746;11.780;2023-06-26T00:35:36;4.75;;;3.90;;
57826;SDS011;43656;57.746;11.780;2023-06-26T00:38:01;5.03;;;3.90;;
57826;SDS011;43656;57.746;11.780;2023-06-26T00:40:27;4.03;;;3.50;;
57826;SDS011;43656;57.746;11.780;2023-06-26T00:42:52;3.58;;;3.28;;
57826;SDS011;43656;57.746;11.780;2023-06-26T00:45:18;5.45;;;3.47;;
57826;SDS011;43656;57.746;11.780;2023-06-26T00:47:44;5.25;;;3.33;;
57826;SDS011;43656;57.746;11.780;2023-06-26T00:50:09;4.15;;;3.70;;
57826;SDS011;43656;57.746;11.780;2023-06-26T00:52:35;4.20;;;3.80;;
57826;SDS011;43656;57.746;11.780;2023-06-26T00:55:01;4.07;;;3.67;;
57826;SDS011;43656;57.746;11.780;2023-06-26T00:57:27;4.60;;;3.50;;
57826;SDS011;43656;57.746;11.780;2023-06-26T00:59:52;4.70;;;3.40;;
57826;SDS011;43656;57.746;11.780;2023-06-26T01:02:18;4.70;;;3.83;;
57826;SDS011;43656;57.746;11.780;2023-06-26T01:04:45;4.57;;;3.85;;
57826;SDS011;43656;57.746;11.780;2023-06-26T01:07:12;4.20;;;3.80;;
57826;SDS011;43656;57.746;11.780;2023-06-26T01:09:39;3.90;;;3.58;;
57826;SDS011;43656;57.746;11.780;2023-06-26T01:12:05;4.55;;;4.15;;
57826;SDS011;43656;57.746;11.780;2023-06-26T01:14:30;5.68;;;4.55;;
57826;SDS011;43656;57.746;11.780;2023-06-26T01:16:57;5.10;;;4.00;;
57826;SDS011;43656;57.746;11.780;2023-06-26T01:19:26;5.00;;;3.95;;
57826;SDS011;43656;57.746;11.780;2023-06-26T01:27:48;4.57;;;3.85;;
57826;SDS011;43656;57.746;11.780;2023-06-26T01:30:17;4.43;;;3.92;;
57826;SDS011;43656;57.746;11.780;2023-06-26T01:32:45;4.45;;;4.00;;
57826;SDS011;43656;57.746;11.780;2023-06-26T01:35:11;3.83;;;3.42;;
57826;SDS011;43656;57.746;11.780;2023-06-26T01:37:38;5.40;;;4.05;;
57826;SDS011;43656;57.746;11.780;2023-06-26T01:40:04;4.28;;;3.88;;
57826;SDS011;43656;57.746;11.780;2023-06-26T01:42:31;4.25;;;3.85;;
57826;SDS011;43656;57.746;11.780;2023-06-26T01:44:57;4.60;;;3.60;;
57826;SDS011;43656;57.746;11.780;2023-06-26T01:47:28;4.00;;;3.53;;
57826;SDS011;43656;57.746;11.780;2023-06-26T01:50:15;4.68;;;4.28;;
57826;SDS011;43656;57.746;11.780;2023-06-26T01:55:22;5.30;;;3.40;;
57826;SDS011;43656;57.746;11.780;2023-06-26T01:57:58;3.50;;;3.20;;
57826;SDS011;43656;57.746;11.780;2023-06-26T02:00:24;3.83;;;3.53;;
57826;SDS011;43656;57.746;11.780;2023-06-26T02:02:51;3.70;;;3.40;;
57826;SDS011;43656;57.746;11.780;2023-06-26T02:05:17;4.57;;;3.42;;
57826;SDS011;43656;57.746;11.780;2023-06-26T02:07:43;4.20;;;3.80;;
57826;SDS011;43656;57.746;11.780;2023-06-26T02:10:09;4.57;;;3.88;;
57826;SDS011;43656;57.746;11.780;2023-06-26T02:12:36;5.68;;;3.58;;
57826;SDS011;43656;57.746;11.780;2023-06-26T02:15:03;4.70;;;4.20;;
57826;SDS011;43656;57.746;11.780;2023-06-26T02:17:29;4.45;;;3.67;;
57826;SDS011;43656;57.746;11.780;2023-06-26T02:19:55;4.20;;;3.80;;
57826;SDS011;43656;57.746;11.780;2023-06-26T02:22:20;5.60;;;4.10;;
57826;SDS011;43656;57.746;11.780;2023-06-26T02:24:46;6.30;;;4.20;;
57826;SDS011;43656;57.746;11.780;2023-06-26T02:27:11;4.43;;;3.65;;
57826;SDS011;43656;57.746;11.780;2023-06-26T02:29:38;5.38;;;3.67;;
57826;SDS011;43656;57.746;11.780;2023-06-26T02:32:04;4.38;;;3.88;;
57826;SDS011;43656;57.746;11.780;2023-06-26T02:34:30;3.53;;;3.22;;
57826;SDS011;43656;57.746;11.780;2023-06-26T02:36:55;3.35;;;3.00;;
57826;SDS011;43656;57.746;11.780;2023-06-26T02:39:21;4.15;;;3.40;;
57826;SDS011;43656;57.746;11.780;2023-06-26T02:41:47;4.60;;;3.90;;
57826;SDS011;43656;57.746;11.780;2023-06-26T02:44:13;5.20;;;4.28;;
57826;SDS011;43656;57.746;11.780;2023-06-26T02:46:39;5.85;;;4.72;;
57826;SDS011;43656;57.746;11.780;2023-06-26T02:49:05;4.50;;;4.10;;
57826;SDS011;43656;57.746;11.780;2023-06-26T02:51:34;4.55;;;4.13;;
57826;SDS011;43656;57.746;11.780;2023-06-26T02:53:59;5.00;;;3.97;;
57826;SDS011;43656;57.746;11.780;2023-06-26T02:56:25;5.10;;;3.80;;
57826;SDS011;43656;57.746;11.780;2023-06-26T02:58:57;4.60;;;3.60;;
57826;SDS011;43656;57.746;11.780;2023-06-26T03:01:23;3.90;;;3.60;;
57826;SDS011;43656;57.746;11.780;2023-06-26T03:03:48;4.07;;;3.38;;
57826;SDS011;43656;57.746;11.780;2023-06-26T03:06:14;3.60;;;3.30;;
57826;SDS011;43656;57.746;11.780;2023-06-26T03:08:40;3.92;;;3.47;;
57826;SDS011;43656;57.746;11.780;2023-06-26T03:11:07;3.80;;;3.13;;
57826;SDS011;43656;57.746;11.780;2023-06-26T03:13:35;3.47;;;3.05;;
57826;SDS011;43656;57.746;11.780;2023-06-26T03:16:02;4.28;;;3.70;;
57826;SDS011;43656;57.746;11.780;2023-06-26T03:18:28;3.45;;;3.15;;
57826;SDS011;43656;57.746;11.780;2023-06-26T03:20:54;4.05;;;3.70;;
57826;SDS011;43656;57.746;11.780;2023-06-26T03:23:20;4.50;;;4.10;;
57826;SDS011;43656;57.746;11.780;2023-06-26T03:25:47;4.10;;;3.70;;
57826;SDS011;43656;57.746;11.780;2023-06-26T03:28:13;4.15;;;3.42;;
57826;SDS011;43656;57.746;11.780;2023-06-26T03:30:38;4.53;;;3.78;;
57826;SDS011;43656;57.746;11.780;2023-06-26T03:33:04;4.80;;;4.30;;
57826;SDS011;43656;57.746;11.780;2023-06-26T03:35:29;4.78;;;4.38;;
57826;SDS011;43656;57.746;11.780;2023-06-26T03:37:55;4.53;;;4.13;;
57826;SDS011;43656;57.746;11.780;2023-06-26T03:40:20;5.70;;;4.28;;
57826;SDS011;43656;57.746;11.780;2023-06-26T03:42:46;4.70;;;4.20;;
57826;SDS011;43656;57.746;11.780;2023-06-26T03:45:11;5.05;;;4.55;;
57826;SDS011;43656;57.746;11.780;2023-06-26T03:47:37;5.93;;;4.05;;
57826;SDS011;43656;57.746;11.780;2023-06-26T03:50:02;4.65;;;4.07;;
57826;SDS011;43656;57.746;11.780;2023-06-26T03:52:28;4.05;;;3.65;;
57826;SDS011;43656;57.746;11.780;2023-06-26T03:54:56;4.63;;;3.80;;
57826;SDS011;43656;57.746;11.780;2023-06-26T03:57:24;4.28;;;3.35;;
57826;SDS011;43656;57.746;11.780;2023-06-26T03:59:50;4.10;;;3.70;;
57826;SDS011;43656;57.746;11.780;2023-06-26T04:02:16;4.00;;;3.58;;
57826;SDS011;43656;57.746;11.780;2023-06-26T04:04:42;3.97;;;3.55;;
57826;SDS011;43656;57.746;11.780;2023-06-26T04:07:07;4.03;;;3.60;;
57826;SDS011;43656;57.746;11.780;2023-06-26T04:09:32;3.65;;;3.35;;
57826;SDS011;43656;57.746;11.780;2023-06-26T04:11:59;3.60;;;3.30;;
57826;SDS011;43656;57.746;11.780;2023-06-26T04:14:24;4.20;;;3.47;;
57826;SDS011;43656;57.746;11.780;2023-06-26T04:16:49;4.82;;;3.65;;
57826;SDS011;43656;57.746;11.780;2023-06-26T04:19:15;4.43;;;3.10;;
57826;SDS011;43656;57.746;11.780;2023-06-26T04:21:40;5.78;;;3.03;;
57826;SDS011;43656;57.746;11.780;2023-06-26T04:24:06;4.10;;;3.40;;
57826;SDS011;43656;57.746;11.780;2023-06-26T04:26:31;3.40;;;3.08;;
57826;SDS011;43656;57.746;11.780;2023-06-26T04:28:57;3.88;;;3.40;;
57826;SDS011;43656;57.746;11.780;2023-06-26T04:31:22;4.32;;;3.33;;
57826;SDS011;43656;57.746;11.780;2023-06-26T04:33:48;4.13;;;3.40;;
57826;SDS011;43656;57.746;11.780;2023-06-26T04:36:16;6.07;;;3.38;;
57826;SDS011;43656;57.746;11.780;2023-06-26T04:38:44;4.05;;;3.60;;
57826;SDS011;43656;57.746;11.780;2023-06-26T04:41:09;5.63;;;3.70;;
57826;SDS011;43656;57.746;11.780;2023-06-26T04:43:35;4.78;;;3.47;;
57826;SDS011;43656;57.746;11.780;2023-06-26T04:46:02;6.03;;;3.47;;
57826;SDS011;43656;57.746;11.780;2023-06-26T04:48:27;4.40;;;3.40;;
57826;SDS011;43656;57.746;11.780;2023-06-26T04:50:54;3.95;;;3.30;;
57826;SDS011;43656;57.746;11.780;2023-06-26T04:53:21;9.15;;;3.45;;
57826;SDS011;43656;57.746;11.780;2023-06-26T04:55:47;5.68;;;3.20;;
57826;SDS011;43656;57.746;11.780;2023-06-26T04:58:16;6.00;;;3.13;;
57826;SDS011;43656;57.746;11.780;2023-06-26T05:00:42;9.73;;;3.42;;
57826;SDS011;43656;57.746;11.780;2023-06-26T05:03:09;8.70;;;3.33;;
57826;SDS011;43656;57.746;11.780;2023-06-26T05:05:35;10.05;;;3.38;;
57826;SDS011;43656;57.746;11.780;2023-06-26T05:08:12;9.57;;;3.10;;
57826;SDS011;43656;57.746;11.780;2023-06-26T05:10:41;16.00;;;3.53;;
57826;SDS011;43656;57.746;11.780;2023-06-26T05:13:07;10.70;;;3.60;;
57826;SDS011;43656;57.746;11.780;2023-06-26T05:15:32;6.05;;;3.28;;
57826;SDS011;43656;57.746;11.780;2023-06-26T05:17:58;10.75;;;3.17;;
57826;SDS011;43656;57.746;11.780;2023-06-26T05:20:23;12.63;;;3.55;;
57826;SDS011;43656;57.746;11.780;2023-06-26T05:22:49;12.32;;;3.17;;
57826;SDS011;43656;57.746;11.780;2023-06-26T05:25:15;10.15;;;3.08;;
57826;SDS011;43656;57.746;11.780;2023-06-26T05:27:41;13.20;;;3.22;;
57826;SDS011;43656;57.746;11.780;2023-06-26T05:30:07;13.07;;;3.25;;
57826;SDS011;43656;57.746;11.780;2023-06-26T05:32:34;10.00;;;2.72;;
57826;SDS011;43656;57.746;11.780;2023-06-26T05:35:01;8.15;;;2.80;;
57826;SDS011;43656;57.746;11.780;2023-06-26T05:37:30;14.57;;;3.10;;
57826;SDS011;43656;57.746;11.780;2023-06-26T05:39:56;14.65;;;3.13;;
57826;SDS011;43656;57.746;11.780;2023-06-26T05:42:22;9.85;;;2.70;;
57826;SDS011;43656;57.746;11.780;2023-06-26T05:44:47;11.82;;;2.60;;
57826;SDS011;43656;57.746;11.780;2023-06-26T05:47:13;6.43;;;2.80;;
57826;SDS011;43656;57.746;11.780;2023-06-26T05:49:38;6.20;;;2.20;;
57826;SDS011;43656;57.746;11.780;2023-06-26T05:52:04;5.28;;;2.17;;
57826;SDS011;43656;57.746;11.780;2023-06-26T05:54:30;4.53;;;2.00;;
57826;SDS011;43656;57.746;11.780;2023-06-26T05:56:56;8.55;;;2.53;;
57826;SDS011;43656;57.746;11.780;2023-06-26T05:59:24;5.82;;;2.60;;
57826;SDS011;43656;57.746;11.780;2023-06-26T06:01:51;8.55;;;2.83;;
57826;SDS011;43656;57.746;11.780;2023-06-26T06:04:17;11.93;;;2.60;;
57826;SDS011;43656;57.746;11.780;2023-06-26T06:06:42;10.40;;;2.30;;
57826;SDS011;43656;57.746;11.780;2023-06-26T06:09:08;6.20;;;2.00;;
57826;SDS011;43656;57.746;11.780;2023-06-26T06:11:33;7.65;;;2.47;;
57826;SDS011;43656;57.746;11.780;2023-06-26T06:13:59;13.68;;;2.45;;
57826;SDS011;43656;57.746;11.780;2023-06-26T06:16:25;9.55;;;2.40;;
57826;SDS011;43656;57.746;11.780;2023-06-26T06:18:54;5.18;;;1.80;;
57826;SDS011;43656;57.746;11.780;2023-06-26T06:21:20;3.55;;;1.80;;
57826;SDS011;43656;57.746;11.780;2023-06-26T06:23:45;6.05;;;2.25;;
57826;SDS011;43656;57.746;11.780;2023-06-26T06:26:11;3.15;;;2.20;;
57826;SDS011;43656;57.746;11.780;2023-06-26T06:28:36;4.05;;;2.63;;
57826;SDS011;43656;57.746;11.780;2023-06-26T06:31:02;4.22;;;2.58;;
57826;SDS011;43656;57.746;11.780;2023-06-26T06:33:27;3.85;;;2.95;;
57826;SDS011;43656;57.746;11.780;2023-06-26T06:35:53;6.40;;;3.45;;
57826;SDS011;43656;57.746;11.780;2023-06-26T06:38:18;6.60;;;3.17;;
57826;SDS011;43656;57.746;11.780;2023-06-26T06:40:44;6.32;;;2.95;;
57826;SDS011;43656;57.746;11.780;2023-06-26T06:43:09;4.13;;;2.78;;
57826;SDS011;43656;57.746;11.780;2023-06-26T06:45:35;6.70;;;2.90;;
57826;SDS011;43656;57.746;11.780;2023-06-26T06:48:02;6.25;;;2.58;;
57826;SDS011;43656;57.746;11.780;2023-06-26T06:50:28;3.90;;;2.55;;
57826;SDS011;43656;57.746;11.780;2023-06-26T06:52:54;2.50;;;2.30;;
57826;SDS011;43656;57.746;11.780;2023-06-26T06:55:19;5.53;;;2.38;;
57826;SDS011;43656;57.746;11.780;2023-06-26T06:57:44;3.15;;;2.30;;
57826;SDS011;43656;57.746;11.780;2023-06-26T07:00:11;5.38;;;2.83;;
57826;SDS011;43656;57.746;11.780;2023-06-26T07:02:39;2.78;;;2.20;;
57826;SDS011;43656;57.746;11.780;2023-06-26T07:05:07;4.85;;;2.60;;
57826;SDS011;43656;57.746;11.780;2023-06-26T07:07:33;2.97;;;2.63;;
57826;SDS011;43656;57.746;11.780;2023-06-26T07:10:04;4.22;;;2.25;;
57826;SDS011;43656;57.746;11.780;2023-06-26T07:12:31;3.50;;;2.20;;
57826;SDS011;43656;57.746;11.780;2023-06-26T07:14:56;2.67;;;2.08;;
57826;SDS011;43656;57.746;11.780;2023-06-26T07:17:22;2.85;;;2.08;;
57826;SDS011;43656;57.746;11.780;2023-06-26T07:19:48;2.78;;;1.80;;
57826;SDS011;43656;57.746;11.780;2023-06-26T07:22:14;2.90;;;1.70;;
57826;SDS011;43656;57.746;11.780;2023-06-26T07:24:40;2.10;;;1.90;;
57826;SDS011;43656;57.746;11.780;2023-06-26T07:27:05;2.08;;;1.50;;
57826;SDS011;43656;57.746;11.780;2023-06-26T07:29:31;1.83;;;1.73;;
57826;SDS011;43656;57.746;11.780;2023-06-26T07:31:56;1.70;;;1.60;;
57826;SDS011;43656;57.746;11.780;2023-06-26T07:34:22;1.60;;;1.50;;
57826;SDS011;43656;57.746;11.780;2023-06-26T07:36:47;2.00;;;1.58;;
57826;SDS011;43656;57.746;11.780;2023-06-26T07:39:13;1.58;;;1.48;;
57826;SDS011;43656;57.746;11.780;2023-06-26T07:41:38;2.60;;;1.40;;
57826;SDS011;43656;57.746;11.780;2023-06-26T07:44:04;1.60;;;1.40;;
57826;SDS011;43656;57.746;11.780;2023-06-26T07:46:29;2.20;;;1.30;;
57826;SDS011;43656;57.746;11.780;2023-06-26T07:48:54;1.90;;;1.80;;
57826;SDS011;43656;57.746;11.780;2023-06-26T07:51:20;2.00;;;1.65;;
57826;SDS011;43656;57.746;11.780;2023-06-26T07:53:46;1.77;;;1.67;;
57826;SDS011;43656;57.746;11.780;2023-06-26T07:56:11;3.50;;;1.90;;
57826;SDS011;43656;57.746;11.780;2023-06-26T07:58:37;2.70;;;1.92;;
57826;SDS011;43656;57.746;11.780;2023-06-26T08:01:03;2.78;;;1.98;;
57826;SDS011;43656;57.746;11.780;2023-06-26T08:03:28;2.97;;;2.42;;
57826;SDS011;43656;57.746;11.780;2023-06-26T08:05:54;3.30;;;2.28;;
57826;SDS011;43656;57.746;11.780;2023-06-26T08:08:20;3.75;;;2.50;;
57826;SDS011;43656;57.746;11.780;2023-06-26T08:10:47;4.10;;;2.50;;
57826;SDS011;43656;57.746;11.780;2023-06-26T08:13:13;3.03;;;2.28;;
57826;SDS011;43656;57.746;11.780;2023-06-26T08:15:38;4.30;;;2.28;;
57826;SDS011;43656;57.746;11.780;2023-06-26T08:18:04;2.50;;;2.30;;
57826;SDS011;43656;57.746;11.780;2023-06-26T08:20:29;3.80;;;2.60;;
57826;SDS011;43656;57.746;11.780;2023-06-26T08:22:55;3.72;;;2.85;;
57826;SDS011;43656;57.746;11.780;2023-06-26T08:25:26;3.38;;;3.08;;
57826;SDS011;43656;57.746;11.780;2023-06-26T08:27:52;4.97;;;3.13;;
57826;SDS011;43656;57.746;11.780;2023-06-26T08:30:19;7.85;;;2.75;;
57826;SDS011;43656;57.746;11.780;2023-06-26T08:32:44;2.60;;;2.33;;
57826;SDS011;43656;57.746;11.780;2023-06-26T08:35:09;4.00;;;2.83;;
57826;SDS011;43656;57.746;11.780;2023-06-26T08:37:35;4.07;;;2.70;;
57826;SDS011;43656;57.746;11.780;2023-06-26T08:40:00;5.97;;;2.60;;
57826;SDS011;43656;57.746;11.780;2023-06-26T08:42:26;4.68;;;3.10;;
57826;SDS011;43656;57.746;11.780;2023-06-26T08:44:52;6.35;;;3.03;;
57826;SDS011;43656;57.746;11.780;2023-06-26T08:47:17;4.68;;;2.90;;
57826;SDS011;43656;57.746;11.780;2023-06-26T08:49:47;3.42;;;3.03;;
57826;SDS011;43656;57.746;11.780;2023-06-26T08:52:30;3.92;;;3.10;;
57826;SDS011;43656;57.746;11.780;2023-06-26T08:54:58;5.20;;;3.50;;
57826;SDS011;43656;57.746;11.780;2023-06-26T08:57:26;4.38;;;3.45;;
57826;SDS011;43656;57.746;11.780;2023-06-26T08:59:52;6.93;;;3.70;;
57826;SDS011;43656;57.746;11.780;2023-06-26T09:02:18;7.57;;;3.40;;
57826;SDS011;43656;57.746;11.780;2023-06-26T09:04:46;5.65;;;3.58;;
57826;SDS011;43656;57.746;11.780;2023-06-26T09:07:12;5.50;;;3.70;;
57826;SDS011;43656;57.746;11.780;2023-06-26T09:09:38;4.30;;;3.50;;
57826;SDS011;43656;57.746;11.780;2023-06-26T09:12:04;4.28;;;3.05;;
57826;SDS011;43656;57.746;11.780;2023-06-26T09:14:29;3.75;;;3.10;;
57826;SDS011;43656;57.746;11.780;2023-06-26T09:16:55;3.72;;;3.00;;
57826;SDS011;43656;57.746;11.780;2023-06-26T09:19:21;3.75;;;2.85;;
57826;SDS011;43656;57.746;11.780;2023-06-26T09:21:47;3.33;;;2.65;;
57826;SDS011;43656;57.746;11.780;2023-06-26T09:24:15;3.30;;;3.00;;
57826;SDS011;43656;57.746;11.780;2023-06-26T09:26:42;3.67;;;3.30;;
57826;SDS011;43656;57.746;11.780;2023-06-26T09:29:08;3.53;;;2.85;;
57826;SDS011;43656;57.746;11.780;2023-06-26T09:31:38;3.38;;;2.85;;
57826;SDS011;43656;57.746;11.780;2023-06-26T09:34:04;3.10;;;2.80;;
57826;SDS011;43656;57.746;11.780;2023-06-26T09:36:30;3.30;;;2.67;;
57826;SDS011;43656;57.746;11.780;2023-06-26T09:39:01;4.30;;;2.47;;
57826;SDS011;43656;57.746;11.780;2023-06-26T09:41:28;2.88;;;2.40;;
57826;SDS011;43656;57.746;11.780;2023-06-26T09:43:53;3.78;;;2.53;;
57826;SDS011;43656;57.746;11.780;2023-06-26T09:46:26;4.18;;;2.60;;
57826;SDS011;43656;57.746;11.780;2023-06-26T09:49:09;3.60;;;2.50;;
57826;SDS011;43656;57.746;11.780;2023-06-26T09:51:36;3.90;;;2.50;;
57826;SDS011;43656;57.746;11.780;2023-06-26T09:54:03;3.05;;;2.65;;
57826;SDS011;43656;57.746;11.780;2023-06-26T09:56:31;2.38;;;2.17;;
57826;SDS011;43656;57.746;11.780;2023-06-26T09:58:59;6.50;;;2.47;;
57826;SDS011;43656;57.746;11.780;2023-06-26T10:01:29;3.95;;;2.60;;
57826;SDS011;43656;57.746;11.780;2023-06-26T10:03:56;3.00;;;2.35;;
57826;SDS011;43656;57.746;11.780;2023-06-26T10:06:28;3.38;;;2.38;;
57826;SDS011;43656;57.746;11.780;2023-06-26T10:09:01;5.50;;;2.50;;
57826;SDS011;43656;57.746;11.780;2023-06-26T10:11:40;2.83;;;2.33;;
57826;SDS011;43656;57.746;11.780;2023-06-26T10:14:10;5.88;;;2.60;;
57826;SDS011;43656;57.746;11.780;2023-06-26T10:16:37;4.35;;;2.50;;
57826;SDS011;43656;57.746;11.780;2023-06-26T10:19:06;3.05;;;2.67;;
57826;SDS011;43656;57.746;11.780;2023-06-26T10:21:35;2.88;;;2.40;;
57826;SDS011;43656;57.746;11.780;2023-06-26T10:24:04;2.75;;;2.30;;
57826;SDS011;43656;57.746;11.780;2023-06-26T10:26:31;3.20;;;2.67;;
57826;SDS011;43656;57.746;11.780;2023-06-26T10:29:02;3.63;;;2.25;;
57826;SDS011;43656;57.746;11.780;2023-06-26T10:31:29;2.97;;;2.60;;
57826;SDS011;43656;57.746;11.780;2023-06-26T10:33:56;2.60;;;2.30;;
57826;SDS011;43656;57.746;11.780;2023-06-26T10:36:31;3.13;;;2.28;;
57826;SDS011;43656;57.746;11.780;2023-06-26T10:39:01;5.85;;;3.03;;
57826;SDS011;43656;57.746;11.780;2023-06-26T10:41:38;3.13;;;2.45;;
57826;SDS011;43656;57.746;11.780;2023-06-26T10:44:16;4.43;;;2.40;;
57826;SDS011;43656;57.746;11.780;2023-06-26T10:46:49;3.15;;;2.70;;
57826;SDS011;43656;57.746;11.780;2023-06-26T10:49:17;3.95;;;2.80;;
57826;SDS011;43656;57.746;11.780;2023-06-26T10:51:49;3.05;;;2.50;;
57826;SDS011;43656;57.746;11.780;2023-06-26T10:54:19;6.78;;;2.70;;
57826;SDS011;43656;57.746;11.780;2023-06-26T10:56:48;5.20;;;2.35;;
57826;SDS011;43656;57.746;11.780;2023-06-26T10:59:16;7.35;;;2.75;;
57826;SDS011;43656;57.746;11.780;2023-06-26T11:01:44;5.70;;;2.88;;
57826;SDS011;43656;57.746;11.780;2023-06-26T11:04:11;2.95;;;2.28;;
57826;SDS011;43656;57.746;11.780;2023-06-26T11:06:39;4.95;;;2.30;;
57826;SDS011;43656;57.746;11.780;2023-06-26T11:14:21;4.28;;;2.35;;
57826;SDS011;43656;57.746;11.780;2023-06-26T11:16:47;4.03;;;2.45;;
57826;SDS011;43656;57.746;11.780;2023-06-26T11:19:14;4.72;;;2.40;;
57826;SDS011;43656;57.746;11.780;2023-06-26T11:21:41;3.92;;;2.13;;
57826;SDS011;43656;57.746;11.780;2023-06-26T11:24:07;2.60;;;2.17;;
57826;SDS011;43656;57.746;11.780;2023-06-26T11:26:46;3.35;;;2.20;;
57826;SDS011;43656;57.746;11.780;2023-06-26T11:29:11;3.03;;;2.13;;
57826;SDS011;43656;57.746;11.780;2023-06-26T11:31:38;5.13;;;2.00;;
57826;SDS011;43656;57.746;11.780;2023-06-26T11:34:06;3.75;;;2.20;;
57826;SDS011;43656;57.746;11.780;2023-06-26T11:36:33;3.10;;;2.25;;
57826;SDS011;43656;57.746;11.780;2023-06-26T11:39:02;2.78;;;2.17;;
57826;SDS011;43656;57.746;11.780;2023-06-26T11:41:33;4.78;;;2.42;;
57826;SDS011;43656;57.746;11.780;2023-06-26T11:44:00;2.47;;;2.08;;
57826;SDS011;43656;57.746;11.780;2023-06-26T11:46:31;6.53;;;2.20;;
57826;SDS011;43656;57.746;11.780;2023-06-26T11:49:03;4.30;;;2.30;;
57826;SDS011;43656;57.746;11.780;2023-06-26T11:51:30;2.78;;;1.92;;
57826;SDS011;43656;57.746;11.780;2023-06-26T11:53:55;3.05;;;2.20;;
57826;SDS011;43656;57.746;11.780;2023-06-26T11:56:21;5.28;;;1.90;;
57826;SDS011;43656;57.746;11.780;2023-06-26T11:58:58;3.28;;;2.10;;
57826;SDS011;43656;57.746;11.780;2023-06-26T12:01:26;2.22;;;2.03;;
57826;SDS011;43656;57.746;11.780;2023-06-26T12:03:57;6.50;;;2.20;;
57826;SDS011;43656;57.746;11.780;2023-06-26T12:06:28;7.00;;;2.20;;
57826;SDS011;43656;57.746;11.780;2023-06-26T12:08:55;5.55;;;2.10;;
57826;SDS011;43656;57.746;11.780;2023-06-26T12:11:23;10.55;;;2.08;;
57826;SDS011;43656;57.746;11.780;2023-06-26T12:13:49;5.70;;;2.30;;
57826;SDS011;43656;57.746;11.780;2023-06-26T12:16:15;4.05;;;2.00;;
57826;SDS011;43656;57.746;11.780;2023-06-26T12:18:41;2.95;;;1.85;;
57826;SDS011;43656;57.746;11.780;2023-06-26T12:21:07;3.47;;;1.83;;
57826;SDS011;43656;57.746;11.780;2023-06-26T12:23:38;7.32;;;2.20;;
57826;SDS011;43656;57.746;11.780;2023-06-26T12:26:19;5.28;;;2.45;;
57826;SDS011;43656;57.746;11.780;2023-06-26T12:28:46;5.20;;;2.42;;
57826;SDS011;43656;57.746;11.780;2023-06-26T12:31:13;4.80;;;2.35;;
57826;SDS011;43656;57.746;11.780;2023-06-26T12:33:45;2.65;;;2.10;;
57826;SDS011;43656;57.746;11.780;2023-06-26T12:36:11;6.03;;;2.22;;
57826;SDS011;43656;57.746;11.780;2023-06-26T12:38:37;2.85;;;2.28;;
57826;SDS011;43656;57.746;11.780;2023-06-26T12:41:03;3.35;;;2.42;;
57826;SDS011;43656;57.746;11.780;2023-06-26T12:43:28;2.63;;;2.40;;
57826;SDS011;43656;57.746;11.780;2023-06-26T12:45:54;3.28;;;2.20;;
57826;SDS011;43656;57.746;11.780;2023-06-26T12:48:21;5.90;;;2.40;;
57826;SDS011;43656;57.746;11.780;2023-06-26T12:50:46;4.30;;;2.25;;
57826;SDS011;43656;57.746;11.780;2023-06-26T12:53:13;5.38;;;2.40;;
57826;SDS011;43656;57.746;11.780;2023-06-26T12:55:38;2.90;;;2.38;;
57826;SDS011;43656;57.746;11.780;2023-06-26T12:58:04;4.90;;;2.22;;
57826;SDS011;43656;57.746;11.780;2023-06-26T13:00:29;4.55;;;2.40;;
57826;SDS011;43656;57.746;11.780;2023-06-26T13:02:57;2.50;;;2.28;;
57826;SDS011;43656;57.746;11.780;2023-06-26T13:05:23;3.53;;;2.20;;
57826;SDS011;43656;57.746;11.780;2023-06-26T13:07:49;3.42;;;2.20;;
57826;SDS011;43656;57.746;11.780;2023-06-26T13:10:14;3.45;;;2.25;;
57826;SDS011;43656;57.746;11.780;2023-06-26T13:12:40;2.78;;;2.50;;
57826;SDS011;43656;57.746;11.780;2023-06-26T13:15:05;2.90;;;2.20;;
57826;SDS011;43656;57.746;11.780;2023-06-26T13:17:32;3.38;;;2.40;;
57826;SDS011;43656;57.746;11.780;2023-06-26T13:19:57;3.47;;;2.50;;
57826;SDS011;43656;57.746;11.780;2023-06-26T13:22:23;2.72;;;2.30;;
57826;SDS011;43656;57.746;11.780;2023-06-26T13:24:48;5.72;;;2.53;;
57826;SDS011;43656;57.746;11.780;2023-06-26T13:27:14;8.02;;;2.65;;
57826;SDS011;43656;57.746;11.780;2023-06-26T13:29:41;5.88;;;2.70;;
57826;SDS011;43656;57.746;11.780;2023-06-26T13:32:07;5.95;;;2.50;;
57826;SDS011;43656;57.746;11.780;2023-06-26T13:34:32;4.68;;;2.85;;
57826;SDS011;43656;57.746;11.780;2023-06-26T13:36:58;4.80;;;2.55;;
57826;SDS011;43656;57.746;11.780;2023-06-26T13:39:25;7.68;;;2.88;;
57826;SDS011;43656;57.746;11.780;2023-06-26T13:41:50;3.78;;;2.50;;
57826;SDS011;43656;57.746;11.780;2023-06-26T13:44:16;4.60;;;2.63;;
57826;SDS011;43656;57.746;11.780;2023-06-26T13:46:41;6.50;;;3.10;;
57826;SDS011;43656;57.746;11.780;2023-06-26T13:49:06;8.20;;;3.15;;
57826;SDS011;43656;57.746;11.780;2023-06-26T13:51:32;6.47;;;2.88;;
57826;SDS011;43656;57.746;11.780;2023-06-26T13:53:57;7.07;;;2.75;;
57826;SDS011;43656;57.746;11.780;2023-06-26T13:56:25;7.65;;;2.40;;
57826;SDS011;43656;57.746;11.780;2023-06-26T13:58:51;6.43;;;2.80;;
57826;SDS011;43656;57.746;11.780;2023-06-26T14:01:16;12.38;;;3.90;;
57826;SDS011;43656;57.746;11.780;2023-06-26T14:03:41;10.55;;;3.63;;
57826;SDS011;43656;57.746;11.780;2023-06-26T14:06:07;13.35;;;4.13;;
57826;SDS011;43656;57.746;11.780;2023-06-26T14:08:32;10.05;;;3.47;;
57826;SDS011;43656;57.746;11.780;2023-06-26T14:10:58;10.10;;;3.17;;
57826;SDS011;43656;57.746;11.780;2023-06-26T14:13:24;9.73;;;3.55;;
57826;SDS011;43656;57.746;11.780;2023-06-26T14:15:49;11.50;;;3.45;;
57826;SDS011;43656;57.746;11.780;2023-06-26T14:18:17;15.90;;;4.45;;
57826;SDS011;43656;57.746;11.780;2023-06-26T14:20:43;19.00;;;4.68;;
57826;SDS011;43656;57.746;11.780;2023-06-26T14:23:09;17.33;;;4.47;;
57826;SDS011;43656;57.746;11.780;2023-06-26T14:25:34;13.68;;;4.35;;
57826;SDS011;43656;57.746;11.780;2023-06-26T14:28:00;17.95;;;4.25;;
57826;SDS011;43656;57.746;11.780;2023-06-26T14:30:26;15.93;;;4.50;;
57826;SDS011;43656;57.746;11.780;2023-06-26T15:42:00;15.35;;;4.95;;
57826;SDS011;43656;57.746;11.780;2023-06-26T15:44:27;14.32;;;5.38;;
57826;SDS011;43656;57.746;11.780;2023-06-26T15:46:53;18.88;;;5.32;;
57826;SDS011;43656;57.746;11.780;2023-06-26T15:49:18;16.17;;;5.28;;
57826;SDS011;43656;57.746;11.780;2023-06-26T15:51:43;10.38;;;4.57;;
57826;SDS011;43656;57.746;11.780;2023-06-26T15:54:10;14.50;;;5.10;;